EZY365G EGCC-EGAC
Flight info
| Callsign | EZY365G |
|---|---|
| Flight time | 0h 32m |
| Altitude | 24000 |
| Route | EKLAD Y53 WAL M146 ERDUV Z198 MASOP M148 MAGEE |
| Aircraft | A320/M-SDE2E3FGHIJ1RWXYZ/LB1 |
Departure
| Time | 2026-04-26 17:18 |
|---|---|
| Airport | Manchester Airport (EGCC) |
Arrival
| Time | 2026-04-26 17:50 |
|---|---|
| Airport | George Best Belfast City Airport (EGAC) |
| Time | Latitude | Longitude | Altitude | Speed | Heading |
|---|---|---|---|---|---|
| 2026-04-26 16:50 | 53.36767 | -2.28952 | 255 ft | 0 kts | 135° |
| 2026-04-26 17:05 | 53.36779 | -2.28973 | 255 ft | 4 kts | 118° |
| 2026-04-26 17:05 | 53.36786 | -2.29006 | 255 ft | 3 kts | 107° |
| 2026-04-26 17:05 | 53.36795 | -2.29025 | 255 ft | 4 kts | 193° |
| 2026-04-26 17:06 | 53.36818 | -2.29012 | 255 ft | 2 kts | 199° |
| 2026-04-26 17:06 | 53.36820 | -2.29011 | 255 ft | 0 kts | 199° |
| 2026-04-26 17:08 | 53.36814 | -2.29015 | 255 ft | 3 kts | 200° |
| 2026-04-26 17:08 | 53.36775 | -2.29039 | 255 ft | 7 kts | 199° |
| 2026-04-26 17:08 | 53.36733 | -2.29019 | 255 ft | 6 kts | 142° |
| 2026-04-26 17:08 | 53.36705 | -2.28971 | 255 ft | 5 kts | 134° |
| 2026-04-26 17:09 | 53.36680 | -2.28928 | 255 ft | 5 kts | 134° |
| 2026-04-26 17:09 | 53.36662 | -2.28907 | 255 ft | 4 kts | 153° |
| 2026-04-26 17:09 | 53.36645 | -2.28898 | 255 ft | 0 kts | 163° |
| 2026-04-26 17:09 | 53.36640 | -2.28896 | 255 ft | 1 kts | 164° |
| 2026-04-26 17:10 | 53.36634 | -2.28892 | 255 ft | 0 kts | 156° |
| 2026-04-26 17:11 | 53.36630 | -2.28889 | 255 ft | 2 kts | 152° |
| 2026-04-26 17:11 | 53.36608 | -2.28848 | 255 ft | 7 kts | 126° |
| 2026-04-26 17:11 | 53.36573 | -2.28754 | 255 ft | 11 kts | 127° |
| 2026-04-26 17:12 | 53.36444 | -2.28535 | 255 ft | 15 kts | 138° |
| 2026-04-26 17:12 | 53.36389 | -2.28376 | 255 ft | 17 kts | 117° |
| 2026-04-26 17:13 | 53.36225 | -2.28084 | 255 ft | 18 kts | 135° |
| 2026-04-26 17:13 | 53.36130 | -2.27942 | 255 ft | 18 kts | 143° |
| 2026-04-26 17:13 | 53.35952 | -2.27855 | 255 ft | 14 kts | 157° |
| 2026-04-26 17:14 | 53.35858 | -2.27820 | 253 ft | 15 kts | 139° |
| 2026-04-26 17:14 | 53.35670 | -2.27590 | 246 ft | 16 kts | 141° |
| 2026-04-26 17:14 | 53.35624 | -2.27446 | 246 ft | 15 kts | 61° |
| 2026-04-26 17:15 | 53.35703 | -2.27281 | 255 ft | 6 kts | 51° |
| 2026-04-26 17:15 | 53.35738 | -2.27210 | 255 ft | 11 kts | 51° |
| 2026-04-26 17:15 | 53.35797 | -2.27088 | 255 ft | 15 kts | 53° |
| 2026-04-26 17:16 | 53.35861 | -2.26921 | 256 ft | 19 kts | 52° |
| 2026-04-26 17:16 | 53.35944 | -2.26726 | 256 ft | 22 kts | 50° |
| 2026-04-26 17:16 | 53.36043 | -2.26519 | 256 ft | 20 kts | 52° |
| 2026-04-26 17:16 | 53.36114 | -2.26381 | 255 ft | 15 kts | 54° |
| 2026-04-26 17:17 | 53.36121 | -2.26222 | 255 ft | 17 kts | 131° |
| 2026-04-26 17:17 | 53.36035 | -2.26132 | 258 ft | 11 kts | 188° |
| 2026-04-26 17:17 | 53.36018 | -2.26157 | 259 ft | 0 kts | 232° |
| 2026-04-26 17:17 | 53.35983 | -2.26234 | 262 ft | 33 kts | 232° |
| 2026-04-26 17:18 | 53.35668 | -2.26889 | 263 ft | 108 kts | 231° |
| 2026-04-26 17:18 | 53.35063 | -2.28139 | 302 ft | 159 kts | 231° |
| 2026-04-26 17:18 | 53.34356 | -2.29591 | 935 ft | 162 kts | 230° |
| 2026-04-26 17:18 | 53.33628 | -2.31114 | 1451 ft | 179 kts | 231° |
| 2026-04-26 17:19 | 53.32223 | -2.35185 | 2230 ft | 233 kts | 265° |
| 2026-04-26 17:19 | 53.32243 | -2.37997 | 2822 ft | 254 kts | 271° |
| 2026-04-26 17:19 | 53.32325 | -2.41023 | 3772 ft | 259 kts | 271° |
| 2026-04-26 17:20 | 53.32356 | -2.44017 | 4736 ft | 262 kts | 262° |
| 2026-04-26 17:20 | 53.32250 | -2.45033 | 5052 ft | 263 kts | 256° |
| 2026-04-26 17:20 | 53.31415 | -2.49959 | 6691 ft | 267 kts | 253° |
| 2026-04-26 17:20 | 53.31089 | -2.53026 | 7598 ft | 272 kts | 271° |
| 2026-04-26 17:21 | 53.31526 | -2.56104 | 8467 ft | 277 kts | 294° |
| 2026-04-26 17:21 | 53.32382 | -2.59012 | 9384 ft | 280 kts | 295° |
| 2026-04-26 17:21 | 53.33265 | -2.61942 | 10256 ft | 282 kts | 296° |
| 2026-04-26 17:21 | 53.34181 | -2.64959 | 10731 ft | 303 kts | 296° |
| 2026-04-26 17:22 | 53.35161 | -2.68194 | 11215 ft | 319 kts | 295° |
| 2026-04-26 17:22 | 53.36170 | -2.71545 | 11991 ft | 325 kts | 295° |
| 2026-04-26 17:22 | 53.37181 | -2.74936 | 12809 ft | 326 kts | 295° |
| 2026-04-26 17:22 | 53.38196 | -2.78361 | 13584 ft | 330 kts | 295° |
| 2026-04-26 17:23 | 53.39225 | -2.81831 | 14333 ft | 334 kts | 295° |
| 2026-04-26 17:23 | 53.40265 | -2.85335 | 15077 ft | 337 kts | 295° |
| 2026-04-26 17:23 | 53.41313 | -2.88868 | 15784 ft | 341 kts | 295° |
| 2026-04-26 17:23 | 53.42373 | -2.92444 | 16481 ft | 343 kts | 295° |
| 2026-04-26 17:24 | 53.43439 | -2.96043 | 17161 ft | 347 kts | 295° |
| 2026-04-26 17:24 | 53.44516 | -2.99682 | 17804 ft | 350 kts | 294° |
| 2026-04-26 17:24 | 53.45600 | -3.03367 | 18462 ft | 353 kts | 295° |
| 2026-04-26 17:24 | 53.46690 | -3.07086 | 19062 ft | 357 kts | 294° |
| 2026-04-26 17:25 | 53.47790 | -3.10841 | 19692 ft | 360 kts | 294° |
| 2026-04-26 17:25 | 53.48903 | -3.14632 | 20286 ft | 363 kts | 294° |
| 2026-04-26 17:25 | 53.50023 | -3.18454 | 20871 ft | 366 kts | 294° |
| 2026-04-26 17:25 | 53.51149 | -3.22309 | 21437 ft | 369 kts | 294° |
| 2026-04-26 17:26 | 53.52287 | -3.26205 | 22001 ft | 373 kts | 294° |
| 2026-04-26 17:26 | 53.53432 | -3.30132 | 22549 ft | 376 kts | 294° |
| 2026-04-26 17:26 | 53.54584 | -3.34097 | 23086 ft | 379 kts | 294° |
| 2026-04-26 17:26 | 53.55742 | -3.38094 | 23604 ft | 382 kts | 294° |
| 2026-04-26 17:27 | 53.56909 | -3.42130 | 24102 ft | 385 kts | 294° |
| 2026-04-26 17:27 | 53.58176 | -3.46121 | 24256 ft | 388 kts | 301° |
| 2026-04-26 17:27 | 53.59727 | -3.49829 | 24294 ft | 393 kts | 303° |
| 2026-04-26 17:27 | 53.61344 | -3.53650 | 24300 ft | 408 kts | 303° |
| 2026-04-26 17:28 | 53.63000 | -3.57575 | 24291 ft | 413 kts | 303° |
| 2026-04-26 17:28 | 53.64669 | -3.61530 | 24293 ft | 414 kts | 303° |
| 2026-04-26 17:28 | 53.66337 | -3.65498 | 24289 ft | 415 kts | 303° |
| 2026-04-26 17:28 | 53.68000 | -3.69470 | 24284 ft | 415 kts | 303° |
| 2026-04-26 17:29 | 53.69663 | -3.73453 | 24284 ft | 415 kts | 303° |
| 2026-04-26 17:29 | 53.70203 | -3.74745 | 24283 ft | 415 kts | 303° |
| 2026-04-26 17:29 | 53.72986 | -3.81434 | 24283 ft | 415 kts | 302° |
| 2026-04-26 17:29 | 53.74644 | -3.85434 | 24282 ft | 415 kts | 302° |
| 2026-04-26 17:30 | 53.76301 | -3.89428 | 24284 ft | 415 kts | 302° |
| 2026-04-26 17:30 | 53.77958 | -3.93427 | 24281 ft | 415 kts | 302° |
| 2026-04-26 17:30 | 53.79054 | -3.96075 | 24278 ft | 415 kts | 302° |
| 2026-04-26 17:30 | 53.80709 | -4.00072 | 24279 ft | 415 kts | 302° |
| 2026-04-26 17:31 | 53.82897 | -4.05383 | 24276 ft | 415 kts | 302° |
| 2026-04-26 17:31 | 53.84546 | -4.09396 | 24277 ft | 415 kts | 302° |
| 2026-04-26 17:31 | 53.86253 | -4.13348 | 24273 ft | 417 kts | 308° |
| 2026-04-26 17:31 | 53.88390 | -4.16690 | 24275 ft | 421 kts | 322° |
| 2026-04-26 17:32 | 53.90954 | -4.19106 | 24273 ft | 426 kts | 335° |
| 2026-04-26 17:32 | 53.92819 | -4.20365 | 24271 ft | 425 kts | 334° |
| 2026-04-26 17:32 | 53.95268 | -4.23058 | 24267 ft | 418 kts | 313° |
| 2026-04-26 17:32 | 53.97224 | -4.26688 | 24266 ft | 417 kts | 309° |
| 2026-04-26 17:33 | 53.99148 | -4.30275 | 24265 ft | 417 kts | 310° |
| 2026-04-26 17:33 | 54.01138 | -4.33856 | 24262 ft | 418 kts | 311° |
| 2026-04-26 17:33 | 54.03163 | -4.37406 | 24266 ft | 418 kts | 311° |
| 2026-04-26 17:34 | 54.07247 | -4.44471 | 24270 ft | 418 kts | 311° |
| 2026-04-26 17:34 | 54.09278 | -4.47994 | 24272 ft | 418 kts | 311° |
| 2026-04-26 17:34 | 54.11307 | -4.51536 | 24273 ft | 417 kts | 311° |
| 2026-04-26 17:34 | 54.13307 | -4.55053 | 24061 ft | 406 kts | 311° |
| 2026-04-26 17:35 | 54.15244 | -4.58464 | 23819 ft | 394 kts | 311° |
| 2026-04-26 17:35 | 54.17129 | -4.61794 | 23566 ft | 388 kts | 311° |
| 2026-04-26 17:35 | 54.18993 | -4.65101 | 23315 ft | 385 kts | 311° |
| 2026-04-26 17:35 | 54.20844 | -4.68389 | 23066 ft | 383 kts | 311° |
| 2026-04-26 17:36 | 54.22691 | -4.71663 | 22816 ft | 382 kts | 311° |
| 2026-04-26 17:36 | 54.24532 | -4.74924 | 22565 ft | 380 kts | 311° |
| 2026-04-26 17:36 | 54.26361 | -4.78167 | 22315 ft | 378 kts | 311° |
| 2026-04-26 17:36 | 54.28182 | -4.81405 | 22067 ft | 377 kts | 311° |
| 2026-04-26 17:37 | 54.29988 | -4.84631 | 21812 ft | 375 kts | 311° |
| 2026-04-26 17:37 | 54.31784 | -4.87851 | 21563 ft | 373 kts | 311° |
| 2026-04-26 17:37 | 54.33574 | -4.91060 | 21312 ft | 371 kts | 311° |
| 2026-04-26 17:38 | 54.37127 | -4.97437 | 20800 ft | 369 kts | 310° |
| 2026-04-26 17:38 | 54.38596 | -5.00975 | 20571 ft | 362 kts | 293° |
| 2026-04-26 17:38 | 54.39560 | -5.04948 | 20314 ft | 359 kts | 289° |
| 2026-04-26 17:38 | 54.40241 | -5.09014 | 19862 ft | 353 kts | 274° |
| 2026-04-26 17:39 | 54.40201 | -5.13191 | 19372 ft | 349 kts | 265° |
| 2026-04-26 17:39 | 54.39992 | -5.17330 | 18865 ft | 347 kts | 264° |
| 2026-04-26 17:39 | 54.39772 | -5.21443 | 18384 ft | 345 kts | 264° |
| 2026-04-26 17:39 | 54.39547 | -5.25529 | 17894 ft | 343 kts | 264° |
| 2026-04-26 17:40 | 54.39325 | -5.29534 | 17432 ft | 341 kts | 264° |
| 2026-04-26 17:40 | 54.39174 | -5.32260 | 17117 ft | 340 kts | 264° |
| 2026-04-26 17:40 | 54.38877 | -5.37640 | 16492 ft | 337 kts | 264° |
| 2026-04-26 17:40 | 54.38660 | -5.41551 | 15812 ft | 331 kts | 264° |
| 2026-04-26 17:41 | 54.38446 | -5.45444 | 14914 ft | 323 kts | 264° |
| 2026-04-26 17:41 | 54.38234 | -5.49264 | 13552 ft | 322 kts | 264° |
| 2026-04-26 17:41 | 54.38035 | -5.53040 | 12537 ft | 311 kts | 264° |
| 2026-04-26 17:41 | 54.37849 | -5.56645 | 11743 ft | 297 kts | 264° |
| 2026-04-26 17:42 | 54.37676 | -5.60060 | 11119 ft | 278 kts | 264° |
| 2026-04-26 17:42 | 54.37512 | -5.63312 | 10131 ft | 274 kts | 264° |
| 2026-04-26 17:42 | 54.37289 | -5.66523 | 9302 ft | 266 kts | 257° |
| 2026-04-26 17:42 | 54.36811 | -5.69541 | 8362 ft | 261 kts | 249° |
| 2026-04-26 17:43 | 54.36155 | -5.72409 | 7505 ft | 255 kts | 249° |
| 2026-04-26 17:43 | 54.35631 | -5.75273 | 6666 ft | 251 kts | 259° |
| 2026-04-26 17:43 | 54.35553 | -5.78200 | 6132 ft | 243 kts | 272° |
| 2026-04-26 17:43 | 54.35787 | -5.81132 | 5198 ft | 253 kts | 278° |
| 2026-04-26 17:44 | 54.36108 | -5.84121 | 4488 ft | 257 kts | 278° |
| 2026-04-26 17:44 | 54.36453 | -5.87126 | 4058 ft | 256 kts | 283° |
| 2026-04-26 17:44 | 54.37303 | -5.89792 | 3651 ft | 258 kts | 311° |
| 2026-04-26 17:44 | 54.38630 | -5.91869 | 3210 ft | 259 kts | 318° |
| 2026-04-26 17:45 | 54.40016 | -5.93837 | 3009 ft | 258 kts | 319° |
| 2026-04-26 17:45 | 54.41431 | -5.95627 | 3004 ft | 245 kts | 329° |
| 2026-04-26 17:45 | 54.42906 | -5.96891 | 2923 ft | 231 kts | 333° |
| 2026-04-26 17:45 | 54.44336 | -5.98019 | 2811 ft | 221 kts | 334° |
| 2026-04-26 17:46 | 54.45704 | -5.99106 | 2690 ft | 212 kts | 334° |
| 2026-04-26 17:46 | 54.47014 | -6.00164 | 2581 ft | 204 kts | 334° |
| 2026-04-26 17:46 | 54.48327 | -6.00988 | 2509 ft | 199 kts | 351° |
| 2026-04-26 17:46 | 54.49700 | -6.00984 | 2521 ft | 198 kts | 12° |
| 2026-04-26 17:47 | 54.50966 | -6.00165 | 2448 ft | 190 kts | 33° |
| 2026-04-26 17:47 | 54.51697 | -5.99321 | 2291 ft | 186 kts | 36° |
| 2026-04-26 17:47 | 54.53088 | -5.97659 | 1953 ft | 181 kts | 36° |
| 2026-04-26 17:47 | 54.54104 | -5.96445 | 1715 ft | 174 kts | 36° |
| 2026-04-26 17:48 | 54.55063 | -5.95304 | 1500 ft | 159 kts | 35° |
| 2026-04-26 17:48 | 54.55920 | -5.94284 | 1302 ft | 142 kts | 37° |
| 2026-04-26 17:48 | 54.56705 | -5.93349 | 1111 ft | 133 kts | 36° |
| 2026-04-26 17:48 | 54.57453 | -5.92457 | 941 ft | 129 kts | 36° |
| 2026-04-26 17:49 | 54.58189 | -5.91578 | 769 ft | 128 kts | 36° |
| 2026-04-26 17:49 | 54.58918 | -5.90699 | 598 ft | 128 kts | 36° |
| 2026-04-26 17:49 | 54.59646 | -5.89822 | 431 ft | 127 kts | 35° |
| 2026-04-26 17:49 | 54.60370 | -5.88963 | 250 ft | 126 kts | 36° |
| 2026-04-26 17:50 | 54.61085 | -5.88112 | 68 ft | 125 kts | 34° |
| 2026-04-26 17:50 | 54.61745 | -5.87325 | 19 ft | 91 kts | 34° |
| 2026-04-26 17:50 | 54.62022 | -5.86996 | 17 ft | 15 kts | 33° |
| 2026-04-26 17:50 | 54.62091 | -5.86887 | 16 ft | 10 kts | 34° |
| 2026-04-26 17:51 | 54.62101 | -5.86919 | 17 ft | 2 kts | 244° |
| 2026-04-26 17:51 | 54.62087 | -5.86931 | 17 ft | 5 kts | 205° |
| 2026-04-26 17:51 | 54.62014 | -5.87012 | 18 ft | 20 kts | 216° |
| 2026-04-26 17:51 | 54.61912 | -5.87132 | 18 ft | 13 kts | 214° |
| 2026-04-26 17:52 | 54.61843 | -5.87178 | 18 ft | 11 kts | 164° |
| 2026-04-26 17:52 | 54.61782 | -5.87045 | 20 ft | 16 kts | 124° |
| 2026-04-26 17:52 | 54.61693 | -5.87029 | 21 ft | 14 kts | 217° |
| 2026-04-26 17:52 | 54.61614 | -5.87125 | 21 ft | 13 kts | 215° |
| 2026-04-26 17:53 | 54.61558 | -5.87182 | 21 ft | 6 kts | 187° |
| 2026-04-26 17:53 | 54.61517 | -5.87158 | 21 ft | 6 kts | 158° |
| 2026-04-26 17:53 | 54.61503 | -5.87147 | 21 ft | 2 kts | 155° |
| 2026-04-26 17:54 | 54.61499 | -5.87144 | 21 ft | 0 kts | 155° |